sensor_id;sensor_type;location;lat;lon;timestamp;pressure;altitude;pressure_sealevel;temperature;humidity
59829;BME280;45708;51.848;107.620;2024-02-23T00:02:31;96538.69;;;-24.36;56.75
59829;BME280;45708;51.848;107.620;2024-02-23T00:07:32;96520.44;;;-24.32;56.67
59829;BME280;45708;51.848;107.620;2024-02-23T00:12:33;96552.56;;;-23.94;57.42
59829;BME280;45708;51.848;107.620;2024-02-23T00:17:34;96528.50;;;-23.88;56.69
59829;BME280;45708;51.848;107.620;2024-02-23T00:22:35;96546.41;;;-23.56;57.09
59829;BME280;45708;51.848;107.620;2024-02-23T00:27:35;96556.25;;;-22.91;57.27
59829;BME280;45708;51.848;107.620;2024-02-23T00:32:36;96554.19;;;-22.42;57.41
59829;BME280;45708;51.848;107.620;2024-02-23T00:37:37;96534.38;;;-22.02;56.78
59829;BME280;45708;51.848;107.620;2024-02-23T00:42:38;96559.03;;;-21.20;56.02
59829;BME280;45708;51.848;107.620;2024-02-23T00:47:39;96572.59;;;-20.39;56.22
59829;BME280;45708;51.848;107.620;2024-02-23T00:52:40;96580.13;;;-19.80;55.47
59829;BME280;45708;51.848;107.620;2024-02-23T00:57:41;96574.16;;;-19.36;55.31
59829;BME280;45708;51.848;107.620;2024-02-23T01:02:41;96579.09;;;-19.10;54.35
59829;BME280;45708;51.848;107.620;2024-02-23T01:07:42;96589.66;;;-18.46;53.88
59829;BME280;45708;51.848;107.620;2024-02-23T01:12:43;96584.28;;;-17.94;53.22
59829;BME280;45708;51.848;107.620;2024-02-23T01:17:44;96593.88;;;-18.46;53.13
59829;BME280;45708;51.848;107.620;2024-02-23T01:22:45;96581.88;;;-18.12;53.27
59829;BME280;45708;51.848;107.620;2024-02-23T01:27:46;96564.53;;;-17.54;53.23
59829;BME280;45708;51.848;107.620;2024-02-23T01:32:46;96583.41;;;-17.90;52.71
59829;BME280;45708;51.848;107.620;2024-02-23T01:37:47;96585.59;;;-17.56;52.41
59829;BME280;45708;51.848;107.620;2024-02-23T01:42:48;96607.72;;;-16.95;51.41
59829;BME280;45708;51.848;107.620;2024-02-23T01:47:49;96605.09;;;-16.87;51.34
59829;BME280;45708;51.848;107.620;2024-02-23T01:52:50;96575.81;;;-16.39;51.19
59829;BME280;45708;51.848;107.620;2024-02-23T01:57:51;96584.50;;;-16.02;51.26
59829;BME280;45708;51.848;107.620;2024-02-23T02:02:52;96590.53;;;-16.09;51.05
59829;BME280;45708;51.848;107.620;2024-02-23T02:07:54;96589.53;;;-18.20;50.98
59829;BME280;45708;51.848;107.620;2024-02-23T02:13:02;96554.03;;;-19.37;51.75
59829;BME280;45708;51.848;107.620;2024-02-23T02:18:03;96589.25;;;-19.47;52.55
59829;BME280;45708;51.848;107.620;2024-02-23T02:23:04;96581.72;;;-19.39;52.85
59829;BME280;45708;51.848;107.620;2024-02-23T02:28:06;96593.47;;;-19.49;53.01
59829;BME280;45708;51.848;107.620;2024-02-23T02:33:07;96573.38;;;-19.56;53.15
59829;BME280;45708;51.848;107.620;2024-02-23T02:38:08;96583.25;;;-19.03;52.70
59829;BME280;45708;51.848;107.620;2024-02-23T02:43:09;96564.88;;;-19.25;53.09
59829;BME280;45708;51.848;107.620;2024-02-23T02:48:09;96578.25;;;-19.08;53.06
59829;BME280;45708;51.848;107.620;2024-02-23T02:53:11;96583.88;;;-18.58;53.14
59829;BME280;45708;51.848;107.620;2024-02-23T02:58:12;96574.50;;;-18.42;52.76
59829;BME280;45708;51.848;107.620;2024-02-23T03:03:13;96567.81;;;-18.40;52.24
59829;BME280;45708;51.848;107.620;2024-02-23T03:08:13;96543.41;;;-18.38;52.78
59829;BME280;45708;51.848;107.620;2024-02-23T03:13:14;96550.88;;;-18.25;52.40
59829;BME280;45708;51.848;107.620;2024-02-23T03:18:15;96529.06;;;-18.30;53.25
59829;BME280;45708;51.848;107.620;2024-02-23T03:23:16;96500.31;;;-18.11;52.76
59829;BME280;45708;51.848;107.620;2024-02-23T03:28:17;96522.69;;;-17.74;52.97
59829;BME280;45708;51.848;107.620;2024-02-23T03:33:18;96530.06;;;-17.56;52.86
59829;BME280;45708;51.848;107.620;2024-02-23T03:38:19;96494.19;;;-17.86;53.08
59829;BME280;45708;51.848;107.620;2024-02-23T03:43:19;96508.34;;;-17.69;52.95
59829;BME280;45708;51.848;107.620;2024-02-23T03:48:20;96540.84;;;-17.40;53.39
59829;BME280;45708;51.848;107.620;2024-02-23T03:53:21;96525.75;;;-17.46;52.87
59829;BME280;45708;51.848;107.620;2024-02-23T03:58:22;96472.28;;;-17.77;53.04
59829;BME280;45708;51.848;107.620;2024-02-23T04:03:23;96508.63;;;-17.20;53.55
59829;BME280;45708;51.848;107.620;2024-02-23T04:08:24;96520.66;;;-16.73;53.13
59829;BME280;45708;51.848;107.620;2024-02-23T04:13:25;96509.16;;;-16.95;52.95
59829;BME280;45708;51.848;107.620;2024-02-23T04:18:25;96497.75;;;-16.65;53.08
59829;BME280;45708;51.848;107.620;2024-02-23T04:23:26;96505.09;;;-16.48;53.04
59829;BME280;45708;51.848;107.620;2024-02-23T04:28:27;96509.09;;;-16.34;52.97
59829;BME280;45708;51.848;107.620;2024-02-23T04:33:28;96484.50;;;-16.24;52.51
59829;BME280;45708;51.848;107.620;2024-02-23T04:38:30;96457.44;;;-16.19;52.78
59829;BME280;45708;51.848;107.620;2024-02-23T04:43:31;96465.56;;;-16.02;52.80
59829;BME280;45708;51.848;107.620;2024-02-23T04:48:32;96468.59;;;-15.80;53.03
59829;BME280;45708;51.848;107.620;2024-02-23T04:53:36;96434.53;;;-15.65;53.00
59829;BME280;45708;51.848;107.620;2024-02-23T04:58:37;96440.16;;;-15.51;53.38
59829;BME280;45708;51.848;107.620;2024-02-23T05:03:38;96454.53;;;-15.10;52.70
59829;BME280;45708;51.848;107.620;2024-02-23T05:08:39;96428.28;;;-15.07;52.87
59829;BME280;45708;51.848;107.620;2024-02-23T05:13:40;96434.75;;;-14.94;53.04
59829;BME280;45708;51.848;107.620;2024-02-23T05:18:41;96433.50;;;-15.15;53.38
59829;BME280;45708;51.848;107.620;2024-02-23T05:23:42;96433.13;;;-14.96;52.96
59829;BME280;45708;51.848;107.620;2024-02-23T05:28:43;96426.28;;;-14.93;52.78
59829;BME280;45708;51.848;107.620;2024-02-23T05:33:44;96418.72;;;-14.94;52.76
59829;BME280;45708;51.848;107.620;2024-02-23T05:38:45;96416.28;;;-14.60;52.66
59829;BME280;45708;51.848;107.620;2024-02-23T05:43:46;96413.03;;;-14.33;51.64
59829;BME280;45708;51.848;107.620;2024-02-23T05:48:46;96398.47;;;-14.26;52.72
59829;BME280;45708;51.848;107.620;2024-02-23T05:53:47;96377.91;;;-14.48;52.25
59829;BME280;45708;51.848;107.620;2024-02-23T05:58:48;96383.47;;;-14.01;51.89
59829;BME280;45708;51.848;107.620;2024-02-23T06:03:50;96381.00;;;-13.72;52.27
59829;BME280;45708;51.848;107.620;2024-02-23T06:08:51;96373.66;;;-13.52;52.81
59829;BME280;45708;51.848;107.620;2024-02-23T06:13:51;96380.41;;;-13.50;52.18
59829;BME280;45708;51.848;107.620;2024-02-23T06:18:52;96365.59;;;-13.66;52.10
59829;BME280;45708;51.848;107.620;2024-02-23T06:23:54;96370.06;;;-13.44;51.74
59829;BME280;45708;51.848;107.620;2024-02-23T06:28:55;96363.09;;;-13.36;52.33
59829;BME280;45708;51.848;107.620;2024-02-23T06:33:57;96357.34;;;-13.15;51.98
59829;BME280;45708;51.848;107.620;2024-02-23T06:38:58;96340.91;;;-13.31;52.12
59829;BME280;45708;51.848;107.620;2024-02-23T06:44:00;96357.25;;;-13.12;52.15
59829;BME280;45708;51.848;107.620;2024-02-23T06:49:06;96348.28;;;-12.96;52.64
59829;BME280;45708;51.848;107.620;2024-02-23T06:54:07;96340.88;;;-13.03;52.09
59829;BME280;45708;51.848;107.620;2024-02-23T06:59:08;96341.03;;;-12.81;51.59
59829;BME280;45708;51.848;107.620;2024-02-23T07:04:09;96326.53;;;-12.78;51.44
59829;BME280;45708;51.848;107.620;2024-02-23T07:09:10;96327.53;;;-12.83;51.54
59829;BME280;45708;51.848;107.620;2024-02-23T07:14:13;96331.63;;;-12.78;51.43
59829;BME280;45708;51.848;107.620;2024-02-23T07:19:14;96332.47;;;-12.77;51.41
59829;BME280;45708;51.848;107.620;2024-02-23T07:24:14;96296.88;;;-12.79;51.34
59829;BME280;45708;51.848;107.620;2024-02-23T07:29:15;96335.97;;;-12.55;51.00
59829;BME280;45708;51.848;107.620;2024-02-23T07:34:16;96318.69;;;-12.45;51.04
59829;BME280;45708;51.848;107.620;2024-02-23T07:39:17;96314.44;;;-12.45;50.89
59829;BME280;45708;51.848;107.620;2024-02-23T07:44:18;96324.59;;;-12.45;50.35
59829;BME280;45708;51.848;107.620;2024-02-23T07:49:18;96329.28;;;-12.57;50.53
59829;BME280;45708;51.848;107.620;2024-02-23T07:54:19;96292.59;;;-12.77;50.99
59829;BME280;45708;51.848;107.620;2024-02-23T07:59:20;96272.16;;;-13.02;50.63
59829;BME280;45708;51.848;107.620;2024-02-23T08:04:22;96316.50;;;-12.56;50.46
59829;BME280;45708;51.848;107.620;2024-02-23T08:09:26;96310.91;;;-12.67;50.40
59829;BME280;45708;51.848;107.620;2024-02-23T08:14:27;96311.69;;;-12.65;50.31
59829;BME280;45708;51.848;107.620;2024-02-23T08:19:28;96298.84;;;-12.61;50.30
59829;BME280;45708;51.848;107.620;2024-02-23T08:24:29;96309.16;;;-12.65;50.09
59829;BME280;45708;51.848;107.620;2024-02-23T08:29:30;96290.16;;;-12.81;50.11
59829;BME280;45708;51.848;107.620;2024-02-23T08:34:31;96306.03;;;-12.73;49.66
59829;BME280;45708;51.848;107.620;2024-02-23T08:39:32;96304.38;;;-12.74;49.58
59829;BME280;45708;51.848;107.620;2024-02-23T08:44:33;96291.69;;;-12.76;49.82
59829;BME280;45708;51.848;107.620;2024-02-23T08:49:33;96291.94;;;-12.83;50.60
59829;BME280;45708;51.848;107.620;2024-02-23T08:54:34;96283.03;;;-12.97;49.52
59829;BME280;45708;51.848;107.620;2024-02-23T08:59:36;96290.25;;;-12.84;49.48
59829;BME280;45708;51.848;107.620;2024-02-23T09:04:37;96285.16;;;-12.84;49.76
59829;BME280;45708;51.848;107.620;2024-02-23T09:09:38;96267.47;;;-12.87;49.48
59829;BME280;45708;51.848;107.620;2024-02-23T09:14:39;96210.47;;;-13.33;49.50
59829;BME280;45708;51.848;107.620;2024-02-23T09:19:40;96290.25;;;-12.84;49.50
59829;BME280;45708;51.848;107.620;2024-02-23T09:24:41;96285.56;;;-12.97;49.37
59829;BME280;45708;51.848;107.620;2024-02-23T09:29:43;96285.13;;;-13.09;49.10
59829;BME280;45708;51.848;107.620;2024-02-23T09:34:44;96256.50;;;-13.42;49.37
59829;BME280;45708;51.848;107.620;2024-02-23T09:39:45;96291.28;;;-13.44;48.72
59829;BME280;45708;51.848;107.620;2024-02-23T09:44:47;96289.28;;;-13.63;49.62
59829;BME280;45708;51.848;107.620;2024-02-23T09:49:49;96288.06;;;-13.79;48.98
59829;BME280;45708;51.848;107.620;2024-02-23T09:54:52;96274.97;;;-13.95;48.83
59829;BME280;45708;51.848;107.620;2024-02-23T09:59:52;96260.31;;;-14.16;49.83
59829;BME280;45708;51.848;107.620;2024-02-23T10:04:54;96289.31;;;-14.25;48.78
59829;BME280;45708;51.848;107.620;2024-02-23T10:09:58;96294.97;;;-14.46;49.48
59829;BME280;45708;51.848;107.620;2024-02-23T10:14:59;96288.69;;;-14.65;49.72
59829;BME280;45708;51.848;107.620;2024-02-23T10:20:00;96295.00;;;-14.80;49.18
59829;BME280;45708;51.848;107.620;2024-02-23T10:25:00;96296.28;;;-14.98;49.17
59829;BME280;45708;51.848;107.620;2024-02-23T10:30:01;96280.94;;;-15.29;48.59
59829;BME280;45708;51.848;107.620;2024-02-23T10:35:03;96297.25;;;-15.41;49.37
59829;BME280;45708;51.848;107.620;2024-02-23T10:40:08;96296.03;;;-15.60;49.26
59829;BME280;45708;51.848;107.620;2024-02-23T10:45:10;96312.09;;;-15.62;48.86
59829;BME280;45708;51.848;107.620;2024-02-23T10:50:10;96312.31;;;-15.73;49.68
59829;BME280;45708;51.848;107.620;2024-02-23T10:55:12;96305.13;;;-15.93;49.57
59829;BME280;45708;51.848;107.620;2024-02-23T11:00:14;96328.09;;;-16.04;49.72
59829;BME280;45708;51.848;107.620;2024-02-23T11:05:15;96319.09;;;-16.17;49.37
59829;BME280;45708;51.848;107.620;2024-02-23T11:10:17;96318.97;;;-16.11;50.09
59829;BME280;45708;51.848;107.620;2024-02-23T11:15:28;96334.94;;;-16.09;49.88
59829;BME280;45708;51.848;107.620;2024-02-23T11:20:37;96335.22;;;-16.24;49.83
59829;BME280;45708;51.848;107.620;2024-02-23T11:25:38;96237.97;;;-16.97;49.52
59829;BME280;45708;51.848;107.620;2024-02-23T11:30:44;96340.66;;;-16.45;50.16
59829;BME280;45708;51.848;107.620;2024-02-23T11:35:48;96353.50;;;-16.56;50.21
59829;BME280;45708;51.848;107.620;2024-02-23T11:40:50;96304.53;;;-16.98;50.29
59829;BME280;45708;51.848;107.620;2024-02-23T11:45:55;96157.06;;;-17.93;50.04
59829;BME280;45708;51.848;107.620;2024-02-23T11:50:57;96361.47;;;-16.77;50.29
59829;BME280;45708;51.848;107.620;2024-02-23T11:55:58;96307.63;;;-17.35;50.04
59829;BME280;45708;51.848;107.620;2024-02-23T12:01:02;96388.28;;;-17.26;50.85
59829;BME280;45708;51.848;107.620;2024-02-23T12:06:03;96305.34;;;-18.16;50.41
59829;BME280;45708;51.848;107.620;2024-02-23T12:11:05;96347.44;;;-18.21;50.72
59829;BME280;45708;51.848;107.620;2024-02-23T12:16:09;96390.94;;;-18.04;50.98
59829;BME280;45708;51.848;107.620;2024-02-23T12:21:13;96360.22;;;-18.38;51.06
59829;BME280;45708;51.848;107.620;2024-02-23T12:26:15;96307.63;;;-18.70;51.14
59829;BME280;45708;51.848;107.620;2024-02-23T12:31:23;96370.16;;;-18.24;50.85
59829;BME280;45708;51.848;107.620;2024-02-23T12:36:26;96371.13;;;-18.37;51.65
59829;BME280;45708;51.848;107.620;2024-02-23T12:41:27;96404.59;;;-18.20;51.42
59829;BME280;45708;51.848;107.620;2024-02-23T12:46:28;96278.56;;;-19.01;51.61
59829;BME280;45708;51.848;107.620;2024-02-23T12:51:29;96294.47;;;-19.02;51.67
59829;BME280;45708;51.848;107.620;2024-02-23T12:56:30;96298.69;;;-19.04;51.63
59829;BME280;45708;51.848;107.620;2024-02-23T13:01:31;96337.97;;;-18.79;51.96
59829;BME280;45708;51.848;107.620;2024-02-23T13:06:32;96279.53;;;-19.18;51.15
59829;BME280;45708;51.848;107.620;2024-02-23T13:11:34;96277.84;;;-19.22;52.26
59829;BME280;45708;51.848;107.620;2024-02-23T13:16:35;96419.97;;;-18.51;51.85
59829;BME280;45708;51.848;107.620;2024-02-23T13:21:35;96413.47;;;-18.73;51.35
59829;BME280;45708;51.848;107.620;2024-02-23T13:26:36;96284.91;;;-19.59;51.77
59829;BME280;45708;51.848;107.620;2024-02-23T13:31:38;96425.31;;;-18.81;52.24
59829;BME280;45708;51.848;107.620;2024-02-23T13:36:38;96301.66;;;-19.62;51.69
59829;BME280;45708;51.848;107.620;2024-02-23T13:41:39;96315.16;;;-19.73;51.67
59829;BME280;45708;51.848;107.620;2024-02-23T13:46:40;96332.81;;;-19.77;52.21
59829;BME280;45708;51.848;107.620;2024-02-23T13:51:41;96445.66;;;-19.12;52.30
59829;BME280;45708;51.848;107.620;2024-02-23T13:56:42;96358.78;;;-19.77;52.11
59829;BME280;45708;51.848;107.620;2024-02-23T14:01:43;96372.25;;;-19.90;52.05
59829;BME280;45708;51.848;107.620;2024-02-23T14:06:44;96407.44;;;-19.87;52.43
59829;BME280;45708;51.848;107.620;2024-02-23T14:11:50;96502.94;;;-19.62;52.11
59829;BME280;45708;51.848;107.620;2024-02-23T14:16:51;96481.16;;;-19.69;52.71
59829;BME280;45708;51.848;107.620;2024-02-23T14:21:53;96403.38;;;-20.30;52.74
59829;BME280;45708;51.848;107.620;2024-02-23T14:26:54;96489.59;;;-19.80;52.78
59829;BME280;45708;51.848;107.620;2024-02-23T14:31:55;96478.69;;;-19.89;52.58
59829;BME280;45708;51.848;107.620;2024-02-23T14:36:56;96378.34;;;-20.64;52.42
59829;BME280;45708;51.848;107.620;2024-02-23T14:41:58;96431.91;;;-20.65;53.03
59829;BME280;45708;51.848;107.620;2024-02-23T14:46:59;96283.03;;;-21.51;52.99
59829;BME280;45708;51.848;107.620;2024-02-23T14:52:00;96438.59;;;-20.64;53.01
59829;BME280;45708;51.848;107.620;2024-02-23T14:57:01;96383.34;;;-21.22;52.92
59829;BME280;45708;51.848;107.620;2024-02-23T15:02:02;96261.28;;;-21.93;52.85
59829;BME280;45708;51.848;107.620;2024-02-23T15:07:03;96514.78;;;-20.65;53.19
59829;BME280;45708;51.848;107.620;2024-02-23T15:12:04;96294.69;;;-22.02;53.50
59829;BME280;45708;51.848;107.620;2024-02-23T15:17:06;96491.34;;;-20.91;53.21
59829;BME280;45708;51.848;107.620;2024-02-23T15:22:07;96417.63;;;-21.45;53.33
59829;BME280;45708;51.848;107.620;2024-02-23T15:27:08;96484.59;;;-21.08;53.42
59829;BME280;45708;51.848;107.620;2024-02-23T15:32:16;96526.44;;;-21.10;53.61
59829;BME280;45708;51.848;107.620;2024-02-23T15:37:17;96183.41;;;-22.97;53.69
59829;BME280;45708;51.848;107.620;2024-02-23T15:42:18;96384.91;;;-21.94;53.59
59829;BME280;45708;51.848;107.620;2024-02-23T15:47:19;96500.47;;;-21.29;53.44
59829;BME280;45708;51.848;107.620;2024-02-23T15:52:19;96281.94;;;-22.67;53.95
59829;BME280;45708;51.848;107.620;2024-02-23T15:57:21;96472.81;;;-21.45;53.73
59829;BME280;45708;51.848;107.620;2024-02-23T16:02:22;96511.31;;;-21.22;54.02
59829;BME280;45708;51.848;107.620;2024-02-23T16:07:23;96492.94;;;-21.33;53.76
59829;BME280;45708;51.848;107.620;2024-02-23T16:12:24;96472.81;;;-21.51;53.89
59829;BME280;45708;51.848;107.620;2024-02-23T16:17:25;96478.66;;;-21.54;54.26
59829;BME280;45708;51.848;107.620;2024-02-23T16:22:26;96352.22;;;-22.34;54.30
59829;BME280;45708;51.848;107.620;2024-02-23T16:27:27;96498.72;;;-21.59;54.24
59829;BME280;45708;51.848;107.620;2024-02-23T16:32:28;96499.56;;;-21.57;54.40
59829;BME280;45708;51.848;107.620;2024-02-23T16:37:29;96501.22;;;-21.62;54.03
59829;BME280;45708;51.848;107.620;2024-02-23T16:42:30;96497.78;;;-21.73;54.23
59829;BME280;45708;51.848;107.620;2024-02-23T16:47:31;96425.69;;;-22.33;54.34
59829;BME280;45708;51.848;107.620;2024-02-23T16:52:32;96505.97;;;-22.13;54.67
59829;BME280;45708;51.848;107.620;2024-02-23T16:57:33;96500.84;;;-22.29;54.52
59829;BME280;45708;51.848;107.620;2024-02-23T17:02:34;96476.56;;;-22.42;54.69
59829;BME280;45708;51.848;107.620;2024-02-23T17:07:35;96512.63;;;-22.14;54.62
59829;BME280;45708;51.848;107.620;2024-02-23T17:12:36;96500.84;;;-22.29;54.68
59829;BME280;45708;51.848;107.620;2024-02-23T17:17:37;96515.94;;;-22.21;54.88
59829;BME280;45708;51.848;107.620;2024-02-23T17:22:38;96489.13;;;-22.36;55.05
59829;BME280;45708;51.848;107.620;2024-02-23T17:27:39;96498.31;;;-22.32;55.30
59829;BME280;45708;51.848;107.620;2024-02-23T17:32:40;96502.47;;;-22.34;54.89
59829;BME280;45708;51.848;107.620;2024-02-23T17:37:40;96501.63;;;-22.36;55.14
59829;BME280;45708;51.848;107.620;2024-02-23T17:42:41;96508.31;;;-22.36;54.99
59829;BME280;45708;51.848;107.620;2024-02-23T17:47:42;96515.84;;;-22.35;54.81
59829;BME280;45708;51.848;107.620;2024-02-23T17:52:43;96512.47;;;-22.37;55.00
59829;BME280;45708;51.848;107.620;2024-02-23T17:57:44;96510.78;;;-22.41;55.38
59829;BME280;45708;51.848;107.620;2024-02-23T18:02:45;96528.41;;;-22.27;55.55
59829;BME280;45708;51.848;107.620;2024-02-23T18:07:46;96524.22;;;-22.27;55.52
59829;BME280;45708;51.848;107.620;2024-02-23T18:12:46;96503.19;;;-22.48;55.47
59829;BME280;45708;51.848;107.620;2024-02-23T18:17:47;96489.66;;;-22.73;55.60
59829;BME280;45708;51.848;107.620;2024-02-23T18:22:48;96518.94;;;-22.63;55.85
59829;BME280;45708;51.848;107.620;2024-02-23T18:27:49;96513.88;;;-22.69;55.38
59829;BME280;45708;51.848;107.620;2024-02-23T18:32:50;96531.53;;;-22.57;55.72
59829;BME280;45708;51.848;107.620;2024-02-23T18:37:50;96535.78;;;-22.44;56.07
59829;BME280;45708;51.848;107.620;2024-02-23T18:42:51;96530.88;;;-22.32;55.78
59829;BME280;45708;51.848;107.620;2024-02-23T18:47:54;96508.38;;;-22.24;55.93
59829;BME280;45708;51.848;107.620;2024-02-23T18:52:55;96530.25;;;-21.99;56.08
59829;BME280;45708;51.848;107.620;2024-02-23T18:57:56;96427.22;;;-22.55;56.03
59829;BME280;45708;51.848;107.620;2024-02-23T19:02:57;96521.09;;;-21.91;55.97
59829;BME280;45708;51.848;107.620;2024-02-23T19:07:58;96518.59;;;-21.89;56.13
59829;BME280;45708;51.848;107.620;2024-02-23T19:12:59;96460.78;;;-22.23;56.02
59829;BME280;45708;51.848;107.620;2024-02-23T19:18:00;96517.78;;;-21.82;56.08
59829;BME280;45708;51.848;107.620;2024-02-23T19:23:01;96517.78;;;-21.85;56.36
59829;BME280;45708;51.848;107.620;2024-02-23T19:28:02;96522.75;;;-21.93;56.42
59829;BME280;45708;51.848;107.620;2024-02-23T19:33:03;96528.56;;;-22.00;56.37
59829;BME280;45708;51.848;107.620;2024-02-23T19:38:04;96503.34;;;-22.26;56.89
59829;BME280;45708;51.848;107.620;2024-02-23T19:43:05;96527.66;;;-22.15;56.22
59829;BME280;45708;51.848;107.620;2024-02-23T19:48:06;96525.16;;;-22.18;56.36
59829;BME280;45708;51.848;107.620;2024-02-23T19:53:07;96535.94;;;-22.23;56.81
59829;BME280;45708;51.848;107.620;2024-02-23T19:58:08;96490.63;;;-22.56;56.51
59829;BME280;45708;51.848;107.620;2024-02-23T20:03:09;96522.34;;;-22.55;56.36
59829;BME280;45708;51.848;107.620;2024-02-23T20:08:10;96535.59;;;-22.65;56.27
59829;BME280;45708;51.848;107.620;2024-02-23T20:13:11;96485.38;;;-22.90;56.66
59829;BME280;45708;51.848;107.620;2024-02-23T20:18:12;96528.09;;;-22.64;56.94
59829;BME280;45708;51.848;107.620;2024-02-23T20:23:13;96530.56;;;-22.68;56.60
59829;BME280;45708;51.848;107.620;2024-02-23T20:28:14;96466.06;;;-23.04;56.65
59829;BME280;45708;51.848;107.620;2024-02-23T20:33:14;96461.03;;;-23.07;56.76
59829;BME280;45708;51.848;107.620;2024-02-23T20:38:15;96532.19;;;-22.76;56.69
59829;BME280;45708;51.848;107.620;2024-02-23T20:43:16;96532.06;;;-22.92;56.60
59829;BME280;45708;51.848;107.620;2024-02-23T20:48:17;96523.59;;;-23.03;56.63
59829;BME280;45708;51.848;107.620;2024-02-23T20:53:18;96464.06;;;-23.39;56.87
59829;BME280;45708;51.848;107.620;2024-02-23T20:58:19;96450.72;;;-23.39;57.15
59829;BME280;45708;51.848;107.620;2024-02-23T21:03:20;96523.75;;;-22.88;56.81
59829;BME280;45708;51.848;107.620;2024-02-23T21:08:21;96520.53;;;-22.74;57.11
59829;BME280;45708;51.848;107.620;2024-02-23T21:13:22;96483.66;;;-22.97;57.07
59829;BME280;45708;51.848;107.620;2024-02-23T21:18:22;96537.28;;;-22.66;57.17
59829;BME280;45708;51.848;107.620;2024-02-23T21:23:23;96537.34;;;-22.61;57.06
59829;BME280;45708;51.848;107.620;2024-02-23T21:28:24;96524.00;;;-22.60;56.87
59829;BME280;45708;51.848;107.620;2024-02-23T21:33:25;96460.34;;;-22.90;56.81
59829;BME280;45708;51.848;107.620;2024-02-23T21:38:26;96530.81;;;-22.41;56.90
59829;BME280;45708;51.848;107.620;2024-02-23T21:43:27;96539.16;;;-22.42;57.16
59829;BME280;45708;51.848;107.620;2024-02-23T21:48:28;96526.53;;;-22.54;56.96
59829;BME280;45708;51.848;107.620;2024-02-23T21:53:29;96540.84;;;-22.41;57.64
59829;BME280;45708;51.848;107.620;2024-02-23T21:58:31;96537.25;;;-22.67;57.48
59829;BME280;45708;51.848;107.620;2024-02-23T22:03:32;96539.69;;;-22.76;57.49
59829;BME280;45708;51.848;107.620;2024-02-23T22:08:32;96518.59;;;-23.03;57.10
59829;BME280;45708;51.848;107.620;2024-02-23T22:13:33;96537.06;;;-22.93;57.28
59829;BME280;45708;51.848;107.620;2024-02-23T22:18:34;96558.88;;;-22.82;57.20
59829;BME280;45708;51.848;107.620;2024-02-23T22:23:35;96484.97;;;-23.32;57.61
59829;BME280;45708;51.848;107.620;2024-02-23T22:28:36;96567.03;;;-23.01;57.12
59829;BME280;45708;51.848;107.620;2024-02-23T22:33:37;96524.00;;;-23.44;57.49
59829;BME280;45708;51.848;107.620;2024-02-23T22:38:38;96550.63;;;-23.47;57.34
59829;BME280;45708;51.848;107.620;2024-02-23T22:43:39;96532.00;;;-23.75;57.56
59829;BME280;45708;51.848;107.620;2024-02-23T22:48:40;96584.72;;;-23.54;58.04
59829;BME280;45708;51.848;107.620;2024-02-23T22:53:40;96578.00;;;-23.61;57.59
59829;BME280;45708;51.848;107.620;2024-02-23T22:58:42;96472.19;;;-24.31;57.59
59829;BME280;45708;51.848;107.620;2024-02-23T23:03:43;96582.00;;;-23.73;57.84
59829;BME280;45708;51.848;107.620;2024-02-23T23:08:44;96531.56;;;-24.07;57.90
59829;BME280;45708;51.848;107.620;2024-02-23T23:13:44;96539.16;;;-24.01;57.90
59829;BME280;45708;51.848;107.620;2024-02-23T23:18:45;96554.25;;;-23.93;58.36
59829;BME280;45708;51.848;107.620;2024-02-23T23:23:46;96508.91;;;-24.21;58.04
59829;BME280;45708;51.848;107.620;2024-02-23T23:28:47;96554.28;;;-23.90;57.67
59829;BME280;45708;51.848;107.620;2024-02-23T23:33:48;96602.75;;;-23.79;58.08
59829;BME280;45708;51.848;107.620;2024-02-23T23:38:49;96537.09;;;-24.31;57.67
59829;BME280;45708;51.848;107.620;2024-02-23T23:43:50;96613.16;;;-24.08;58.05
59829;BME280;45708;51.848;107.620;2024-02-23T23:48:51;96565.19;;;-24.43;58.04
59829;BME280;45708;51.848;107.620;2024-02-23T23:53:52;96543.47;;;-24.48;58.11
59829;BME280;45708;51.848;107.620;2024-02-23T23:58:53;96619.16;;;-23.96;58.09
